Time;durP1;ratioP1;P1;durP2;ratioP2;P2;SDS_P1;SDS_P2;PMS_P1;PMS_P2;Temp;Humidity;BMP_temperature;BMP_pressure;BME280_temperature;BME280_humidity;BME280_pressure;Samples;Min_cycle;Max_cycle;Signal;HPM_P1;HPM_P2
2022/09/20 00:00:33;;;;;;;5.35;0.88;;;10.90;75.10;;;;;;5033937;28;20050;-79
2022/09/20 00:03:00;;;;;;;5.70;0.85;;;10.90;75.00;;;;;;5032617;28;20050;-79
2022/09/20 00:05:27;;;;;;;5.63;0.80;;;10.90;75.00;;;;;;5032455;28;20046;-79
2022/09/20 00:07:54;;;;;;;6.13;0.57;;;10.80;75.30;;;;;;5032527;28;20042;-79
2022/09/20 00:10:23;;;;;;;4.53;0.75;;;10.80;75.30;;;;;;5032257;28;20053;-79
2022/09/20 00:12:50;;;;;;;6.38;0.63;;;10.80;75.30;;;;;;5032429;28;20615;-79
2022/09/20 00:15:18;;;;;;;5.85;0.60;;;10.80;75.40;;;;;;5032459;28;20046;-79
2022/09/20 00:17:45;;;;;;;3.87;0.70;;;10.70;75.70;;;;;;5034064;28;20058;-79
2022/09/20 00:20:12;;;;;;;5.28;0.65;;;10.70;75.60;;;;;;5031929;28;20050;-79
2022/09/20 00:22:39;;;;;;;6.32;0.60;;;10.70;75.70;;;;;;5032319;28;20046;-79
2022/09/20 00:25:08;;;;;;;6.43;0.70;;;10.60;75.70;;;;;;5033536;28;20125;-79
2022/09/20 00:27:35;;;;;;;5.45;0.98;;;10.60;75.80;;;;;;5032514;28;20080;-79
2022/09/20 00:30:02;;;;;;;5.63;0.80;;;10.60;76.10;;;;;;5031695;28;20060;-79
2022/09/20 00:33:01;;;;;;;4.65;0.60;;;10.60;76.20;;;;;;5033915;28;20049;-79
2022/09/20 00:35:28;;;;;;;5.32;0.60;;;10.50;76.50;;;;;;5032448;28;20052;-79
2022/09/20 00:37:55;;;;;;;7.43;1.13;;;10.60;76.50;;;;;;5032187;28;20080;-79
2022/09/20 00:40:25;;;;;;;6.50;0.77;;;10.50;76.60;;;;;;5033108;28;20056;-79
2022/09/20 00:42:53;;;;;;;8.27;1.10;;;10.50;76.60;;;;;;5033408;28;20081;-79
2022/09/20 00:45:22;;;;;;;6.95;0.90;;;10.50;76.60;;;;;;5032064;28;20057;-79
2022/09/20 00:47:53;;;;;;;3.60;0.60;;;10.50;76.70;;;;;;5031707;28;20046;-79
2022/09/20 00:50:28;;;;;;;6.10;0.80;;;10.50;76.70;;;;;;5031867;28;20519;-79
2022/09/20 00:53:02;;;;;;;6.35;0.90;;;10.50;76.80;;;;;;5031583;28;20869;-79
2022/09/20 00:55:29;;;;;;;5.07;0.90;;;10.50;76.80;;;;;;5031901;28;20057;-79
2022/09/20 00:57:58;;;;;;;5.72;0.60;;;10.50;76.90;;;;;;5031465;28;20077;-80
2022/09/20 01:00:27;;;;;;;6.47;0.80;;;10.40;76.90;;;;;;5032669;28;20061;-79
2022/09/20 01:02:58;;;;;;;8.65;1.02;;;10.40;77.00;;;;;;5033331;28;20545;-79
2022/09/20 01:05:27;;;;;;;11.48;1.17;;;10.40;77.30;;;;;;5031763;28;20158;-78
2022/09/20 01:07:56;;;;;;;6.47;0.70;;;10.30;77.30;;;;;;5031647;28;20042;-79
2022/09/20 01:10:23;;;;;;;5.57;1.23;;;10.30;77.50;;;;;;5032743;28;20053;-79
2022/09/20 01:12:52;;;;;;;8.63;1.10;;;10.30;77.50;;;;;;5031473;28;20058;-79
2022/09/20 01:15:22;;;;;;;6.78;1.17;;;10.30;77.60;;;;;;5031555;28;20050;-79
2022/09/20 01:17:53;;;;;;;5.28;1.20;;;10.30;77.60;;;;;;5031431;28;20556;-79
2022/09/20 01:20:24;;;;;;;7.00;1.17;;;10.20;77.60;;;;;;5032441;28;20058;-78
2022/09/20 01:23:21;;;;;;;6.25;1.10;;;10.20;77.70;;;;;;5031354;28;20132;-79
2022/09/20 01:26:18;;;;;;;8.50;1.90;;;10.20;77.70;;;;;;5031414;28;20050;-79
2022/09/20 01:28:48;;;;;;;7.95;1.30;;;10.10;77.90;;;;;;5013846;28;20054;-79
2022/09/20 01:31:21;;;;;;;6.85;1.00;;;10.10;78.10;;;;;;5031399;28;20061;-79
2022/09/20 01:33:52;;;;;;;5.83;1.60;;;10.10;78.00;;;;;;5046281;28;20523;-79
2022/09/20 01:36:24;;;;;;;6.88;1.63;;;10.10;78.10;;;;;;5051433;28;20045;-79
2022/09/20 01:39:00;;;;;;;6.72;1.55;;;10.10;78.30;;;;;;5050301;28;20132;-79
2022/09/20 01:41:32;;;;;;;6.13;1.50;;;10.10;78.40;;;;;;5052584;28;20049;-79
2022/09/20 01:44:08;;;;;;;7.40;1.80;;;10.00;78.50;;;;;;5034400;28;20052;-79
2022/09/20 01:46:36;;;;;;;8.10;2.30;;;10.00;78.60;;;;;;5034397;28;20060;-79
2022/09/20 01:49:16;;;;;;;6.00;1.30;;;10.00;78.70;;;;;;5050768;28;20064;-79
2022/09/20 01:52:23;;;;;;;9.27;2.60;;;10.00;78.60;;;;;;5052294;28;20046;-79
2022/09/20 01:55:34;;;;;;;8.10;2.10;;;10.00;78.80;;;;;;5067491;28;20183;-79
2022/09/20 01:58:32;;;;;;;8.35;1.30;;;10.00;78.90;;;;;;5067688;28;20160;-79
2022/09/20 02:01:32;;;;;;;6.47;1.00;;;10.00;79.00;;;;;;5067405;28;20056;-79
2022/09/20 02:04:31;;;;;;;5.80;0.98;;;9.90;78.90;;;;;;5049957;28;20053;-79
2022/09/20 02:07:38;;;;;;;9.63;1.40;;;9.90;78.90;;;;;;5048676;28;20529;-79
2022/09/20 02:10:31;;;;;;;5.57;0.82;;;9.90;79.10;;;;;;5049646;28;20458;-79
2022/09/20 02:13:03;;;;;;;7.18;0.88;;;9.80;79.10;;;;;;5051748;28;20041;-79
2022/09/20 02:16:01;;;;;;;4.70;0.60;;;9.80;79.30;;;;;;5050483;28;20045;-79
2022/09/20 02:18:43;;;;;;;5.20;0.60;;;9.80;79.40;;;;;;5051972;28;20055;-79
2022/09/20 02:21:18;;;;;;;4.85;1.00;;;9.80;79.60;;;;;;5051840;28;20049;-79
2022/09/20 02:23:56;;;;;;;5.93;1.05;;;9.80;79.40;;;;;;5050145;28;20075;-79
2022/09/20 02:26:36;;;;;;;5.40;0.70;;;9.80;79.50;;;;;;5050341;28;20133;-78
2022/09/20 02:29:15;;;;;;;6.70;0.90;;;9.80;79.40;;;;;;5051535;28;20064;-79
2022/09/20 02:32:08;;;;;;;6.07;1.00;;;9.70;79.50;;;;;;5055147;28;20045;-79
2022/09/20 02:35:04;;;;;;;5.07;0.95;;;9.70;79.60;;;;;;5050288;28;20042;-79
2022/09/20 02:37:53;;;;;;;5.10;0.88;;;9.70;79.90;;;;;;5051659;28;20057;-79
2022/09/20 02:40:31;;;;;;;5.80;0.88;;;9.70;79.80;;;;;;5051642;28;20052;-79
2022/09/20 02:43:04;;;;;;;8.83;1.07;;;9.70;79.80;;;;;;5048210;28;20061;-78
2022/09/20 02:45:38;;;;;;;5.20;0.90;;;9.70;79.80;;;;;;5050557;28;20042;-79
2022/09/20 02:48:06;;;;;;;6.15;0.95;;;9.70;79.80;;;;;;5050123;28;20826;-79
2022/09/20 02:50:46;;;;;;;5.88;0.90;;;9.60;79.80;;;;;;5052403;28;20049;-78
2022/09/20 02:53:31;;;;;;;6.90;0.80;;;9.60;79.80;;;;;;5053655;28;20062;-78
2022/09/20 02:56:07;;;;;;;5.23;0.70;;;9.60;79.80;;;;;;5055135;28;20046;-79
2022/09/20 02:58:46;;;;;;;6.60;0.90;;;9.60;79.90;;;;;;5053494;28;20049;-79
2022/09/20 03:01:22;;;;;;;7.20;0.90;;;9.60;79.90;;;;;;5053752;28;20049;-79
2022/09/20 03:04:02;;;;;;;5.78;0.80;;;9.60;79.80;;;;;;5055021;28;20136;-79
2022/09/20 03:06:40;;;;;;;4.90;0.63;;;9.60;79.80;;;;;;5053467;28;20050;-79
2022/09/20 03:09:16;;;;;;;4.30;0.50;;;9.60;79.80;;;;;;5053196;28;20053;-79
2022/09/20 03:11:49;;;;;;;6.00;0.90;;;9.70;79.80;;;;;;5053390;28;20049;-79
2022/09/20 03:14:21;;;;;;;4.22;0.73;;;9.70;79.80;;;;;;5053365;28;20088;-78
2022/09/20 03:17:04;;;;;;;4.70;0.98;;;9.70;79.80;;;;;;5051156;28;20049;-78
2022/09/20 03:19:46;;;;;;;6.22;1.00;;;9.70;79.70;;;;;;5054335;28;20170;-79
2022/09/20 03:22:26;;;;;;;6.07;0.73;;;9.80;79.80;;;;;;5052982;28;20076;-79
2022/09/20 03:25:07;;;;;;;8.40;1.02;;;9.80;79.80;;;;;;5053340;28;20136;-79
2022/09/20 03:27:42;;;;;;;3.70;0.68;;;9.80;79.80;;;;;;5053376;28;20133;-79
2022/09/20 03:30:25;;;;;;;4.35;0.73;;;9.80;79.80;;;;;;5052682;28;20128;-79
2022/09/20 03:33:02;;;;;;;4.32;0.60;;;9.80;79.80;;;;;;5052902;28;20096;-78
2022/09/20 03:35:42;;;;;;;5.10;0.60;;;9.80;79.80;;;;;;5053112;28;20120;-79
2022/09/20 03:38:27;;;;;;;3.42;0.60;;;9.90;79.90;;;;;;5052957;28;20133;-78
2022/09/20 03:41:39;;;;;;;4.57;0.70;;;9.90;79.90;;;;;;5054222;28;20188;-79
2022/09/20 03:44:27;;;;;;;6.88;0.90;;;9.90;80.00;;;;;;4972569;28;20051;-79
2022/09/20 03:47:05;;;;;;;6.00;0.88;;;9.90;80.10;;;;;;4940329;28;20157;-79
2022/09/20 03:50:00;;;;;;;5.23;0.87;;;9.90;80.20;;;;;;5025274;28;20056;-78
2022/09/20 03:52:45;;;;;;;5.28;0.85;;;9.90;80.20;;;;;;5013096;28;20054;-79
2022/09/20 03:55:46;;;;;;;7.00;0.60;;;9.90;80.40;;;;;;5014434;28;20081;-79
2022/09/20 03:58:30;;;;;;;7.22;1.00;;;9.90;80.40;;;;;;4986520;28;20070;-78
2022/09/20 04:01:12;;;;;;;4.20;0.70;;;9.90;80.50;;;;;;5012357;28;20050;-79
2022/09/20 04:03:50;;;;;;;5.87;0.50;;;9.90;80.70;;;;;;5013061;28;20050;-78
2022/09/20 04:06:37;;;;;;;4.72;0.80;;;9.90;80.80;;;;;;5014499;28;20058;-78
2022/09/20 04:09:29;;;;;;;4.88;0.90;;;9.90;80.90;;;;;;4996397;28;20551;-79
2022/09/20 04:12:06;;;;;;;3.65;0.50;;;10.00;80.90;;;;;;5028950;28;20046;-79
2022/09/20 04:14:40;;;;;;;5.72;0.63;;;10.00;81.10;;;;;;4996271;28;21009;-79
2022/09/20 04:17:23;;;;;;;6.00;0.60;;;10.00;81.20;;;;;;5012762;28;20050;-79
2022/09/20 04:19:58;;;;;;;4.90;0.82;;;10.00;81.10;;;;;;5012489;28;20050;-79
2022/09/20 04:22:27;;;;;;;5.35;0.70;;;10.00;81.10;;;;;;5012794;28;20141;-79
2022/09/20 04:25:00;;;;;;;5.85;0.70;;;10.00;81.40;;;;;;5028984;28;20053;-78
2022/09/20 04:27:34;;;;;;;4.85;0.70;;;10.00;81.10;;;;;;5053254;28;20061;-79
2022/09/20 04:30:04;;;;;;;4.23;0.70;;;10.10;81.00;;;;;;5052051;28;20430;-79
2022/09/20 04:32:35;;;;;;;4.38;0.50;;;10.10;81.20;;;;;;5068696;28;20054;-79
2022/09/20 04:37:57;;;;;;;4.60;0.50;;;10.20;81.50;;;;;;5051433;28;21018;-78
2022/09/20 04:40:44;;;;;;;5.75;0.60;;;10.20;82.00;;;;;;5052678;28;20046;-79
2022/09/20 04:43:51;;;;;;;3.40;0.60;;;10.30;81.90;;;;;;5050122;28;20064;-78
2022/09/20 04:47:10;;;;;;;4.53;0.63;;;10.30;81.70;;;;;;5026720;28;20061;-79
2022/09/20 04:50:06;;;;;;;4.10;0.60;;;10.40;81.70;;;;;;5067354;28;20088;-79
2022/09/20 04:53:10;;;;;;;4.50;0.65;;;10.40;81.50;;;;;;5051288;28;20045;-78
2022/09/20 04:55:51;;;;;;;3.38;0.60;;;10.40;81.60;;;;;;5050116;28;20060;-79
2022/09/20 04:58:58;;;;;;;7.20;0.90;;;10.50;81.60;;;;;;5052993;28;20076;-79
2022/09/20 05:02:08;;;;;;;4.00;0.60;;;10.50;81.60;;;;;;5053024;28;20060;-78
2022/09/20 05:05:19;;;;;;;5.88;0.90;;;10.50;81.60;;;;;;5051465;28;20050;-79
2022/09/20 05:08:16;;;;;;;6.32;1.00;;;10.50;81.60;;;;;;5051392;28;20071;-79
2022/09/20 05:11:18;;;;;;;4.28;0.65;;;10.60;81.30;;;;;;5051115;28;20499;-79
2022/09/20 05:14:11;;;;;;;4.37;0.70;;;10.60;81.20;;;;;;5051808;28;20132;-79
2022/09/20 05:16:56;;;;;;;4.95;0.80;;;10.60;81.00;;;;;;5051208;28;20045;-79
2022/09/20 05:19:32;;;;;;;3.17;0.50;;;10.60;81.10;;;;;;5050841;28;20120;-79
2022/09/20 05:22:19;;;;;;;7.75;0.80;;;10.60;81.20;;;;;;5051175;28;21086;-78
2022/09/20 05:25:07;;;;;;;5.70;0.60;;;10.70;81.40;;;;;;5051121;28;20055;-79
2022/09/20 05:27:41;;;;;;;5.30;0.60;;;10.60;81.60;;;;;;5051242;28;21035;-79
2022/09/20 05:30:21;;;;;;;5.60;0.52;;;10.60;81.70;;;;;;5050446;28;20045;-79
2022/09/20 05:32:57;;;;;;;3.78;0.52;;;10.60;81.70;;;;;;5052547;28;20049;-79
2022/09/20 05:35:31;;;;;;;3.53;0.60;;;10.60;81.60;;;;;;5035138;28;20049;-78
2022/09/20 05:38:07;;;;;;;5.25;0.68;;;10.60;81.60;;;;;;5032537;28;20426;-78
2022/09/20 05:40:48;;;;;;;5.07;0.90;;;10.60;81.60;;;;;;5032269;28;20050;-79
2022/09/20 05:43:25;;;;;;;4.93;0.70;;;10.60;81.60;;;;;;5030873;28;20162;-79
2022/09/20 05:46:04;;;;;;;3.03;0.50;;;10.70;81.70;;;;;;5030931;28;20132;-79
2022/09/20 05:48:43;;;;;;;4.88;0.60;;;10.70;81.50;;;;;;5034929;28;20050;-79
2022/09/20 05:51:20;;;;;;;3.35;0.55;;;10.70;81.40;;;;;;5030554;28;20128;-79
2022/09/20 05:54:11;;;;;;;3.13;0.60;;;10.70;81.30;;;;;;5030766;28;20074;-79
2022/09/20 05:56:49;;;;;;;3.33;0.60;;;10.70;81.30;;;;;;5030711;28;20049;-79
2022/09/20 05:59:25;;;;;;;3.90;0.65;;;10.80;81.20;;;;;;5014204;28;20057;-79
2022/09/20 06:02:14;;;;;;;4.05;0.50;;;10.80;81.10;;;;;;5016060;28;20098;-79
2022/09/20 06:04:49;;;;;;;3.10;0.47;;;10.80;81.10;;;;;;5010888;28;20073;-79
2022/09/20 06:07:23;;;;;;;3.63;0.60;;;10.80;81.10;;;;;;5024753;28;20049;-78
2022/09/20 06:10:30;;;;;;;4.03;0.93;;;10.80;81.10;;;;;;5028215;28;20081;-79
2022/09/20 06:13:03;;;;;;;3.47;0.50;;;10.90;81.30;;;;;;5029983;28;20058;-79
2022/09/20 06:15:37;;;;;;;3.63;0.50;;;10.90;81.40;;;;;;5013957;28;20060;-78
2022/09/20 06:18:19;;;;;;;6.32;0.80;;;10.90;81.40;;;;;;5030685;28;20053;-79
2022/09/20 06:20:54;;;;;;;4.87;0.47;;;10.90;81.60;;;;;;5029840;28;20050;-78
2022/09/20 06:23:22;;;;;;;4.57;0.55;;;11.00;81.50;;;;;;5029772;28;20054;-79
2022/09/20 06:25:56;;;;;;;5.65;0.65;;;11.00;81.70;;;;;;5012799;28;20526;-79
2022/09/20 06:28:26;;;;;;;2.90;0.47;;;11.00;81.80;;;;;;5027938;28;20054;-79
2022/09/20 06:30:55;;;;;;;3.38;0.57;;;11.00;82.10;;;;;;5010911;28;20050;-79
2022/09/20 06:33:26;;;;;;;4.80;0.60;;;11.00;82.00;;;;;;5024321;28;20054;-78
2022/09/20 06:35:56;;;;;;;4.22;0.70;;;11.10;82.20;;;;;;5020068;28;20056;-79
2022/09/20 06:41:29;;;;;;;5.35;0.55;;;11.10;81.80;;;;;;5000655;28;20117;-79
2022/09/20 06:43:58;;;;;;;4.03;0.65;;;11.10;81.50;;;;;;5029001;28;20124;-79
2022/09/20 06:46:27;;;;;;;6.17;0.80;;;11.10;81.50;;;;;;5029656;28;20042;-79
2022/09/20 06:48:57;;;;;;;3.95;0.50;;;11.10;81.40;;;;;;5029220;28;20058;-79
2022/09/20 06:51:26;;;;;;;3.60;0.60;;;11.10;81.50;;;;;;5024569;28;20077;-79
2022/09/20 06:53:54;;;;;;;2.70;0.70;;;11.20;81.60;;;;;;5027052;28;20054;-78
2022/09/20 06:56:23;;;;;;;4.47;0.77;;;11.20;81.50;;;;;;5020995;28;20562;-78
2022/09/20 06:58:51;;;;;;;3.47;0.50;;;11.30;81.50;;;;;;5028154;28;20801;-78
2022/09/20 07:01:19;;;;;;;5.38;0.93;;;11.30;81.50;;;;;;5016776;28;20054;-78
2022/09/20 07:03:46;;;;;;;5.57;1.20;;;11.30;81.50;;;;;;5020763;28;20053;-79
2022/09/20 07:06:15;;;;;;;4.35;0.70;;;11.30;81.40;;;;;;5028320;28;20073;-78
2022/09/20 07:08:42;;;;;;;7.00;0.88;;;11.30;81.50;;;;;;5028609;28;20046;-79
2022/09/20 07:11:14;;;;;;;5.57;0.90;;;11.20;81.80;;;;;;5028240;28;20060;-78
2022/09/20 07:13:41;;;;;;;4.38;0.82;;;11.20;81.60;;;;;;5000021;28;20470;-78
2022/09/20 07:16:11;;;;;;;6.13;1.38;;;11.20;82.10;;;;;;5029157;28;20065;-79
2022/09/20 07:18:40;;;;;;;4.80;0.90;;;11.20;82.00;;;;;;5027674;28;20084;-79
2022/09/20 07:21:08;;;;;;;6.28;1.02;;;11.30;82.00;;;;;;5048179;28;20050;-79
2022/09/20 07:23:36;;;;;;;8.23;0.80;;;11.30;82.10;;;;;;5028950;28;20057;-79
2022/09/20 07:26:04;;;;;;;5.60;0.77;;;11.30;82.50;;;;;;5030038;28;20050;-79
2022/09/20 07:28:33;;;;;;;3.83;0.60;;;11.40;82.50;;;;;;5029048;28;20060;-78
2022/09/20 07:31:00;;;;;;;4.88;0.60;;;11.40;82.70;;;;;;5028607;28;20057;-79
2022/09/20 07:33:27;;;;;;;4.18;0.60;;;11.40;82.80;;;;;;5028851;28;20058;-79
2022/09/20 07:35:55;;;;;;;4.13;0.80;;;11.50;82.70;;;;;;5029005;28;20054;-79
2022/09/20 07:38:23;;;;;;;4.72;0.88;;;11.50;82.70;;;;;;5032396;28;20516;-79
2022/09/20 07:40:56;;;;;;;6.13;0.60;;;11.50;82.70;;;;;;5032532;28;20945;-79
2022/09/20 07:43:24;;;;;;;5.10;0.80;;;11.50;82.40;;;;;;5033886;28;20054;-79
2022/09/20 07:45:53;;;;;;;3.40;0.60;;;11.50;82.40;;;;;;5032675;28;20204;-79
2022/09/20 07:48:21;;;;;;;3.90;0.70;;;11.60;82.50;;;;;;5030902;28;20046;-79
2022/09/20 07:50:52;;;;;;;3.70;0.50;;;11.60;82.30;;;;;;5032455;28;20054;-80
2022/09/20 07:53:19;;;;;;;4.30;0.70;;;11.70;82.60;;;;;;5028392;28;20054;-79
2022/09/20 07:55:58;;;;;;;4.85;0.80;;;11.70;82.60;;;;;;5031163;28;20157;-80
2022/09/20 07:58:26;;;;;;;3.67;0.82;;;11.70;82.60;;;;;;5031684;28;20124;-80
2022/09/20 08:00:53;;;;;;;5.30;0.60;;;11.80;82.80;;;;;;5032795;28;20133;-80
2022/09/20 08:03:21;;;;;;;3.50;0.50;;;11.90;82.80;;;;;;5032407;28;20050;-80
2022/09/20 08:05:49;;;;;;;7.25;0.80;;;11.90;82.50;;;;;;5033480;28;20141;-79
2022/09/20 08:08:16;;;;;;;6.25;0.82;;;11.90;82.20;;;;;;5032770;28;20050;-79
2022/09/20 08:10:44;;;;;;;3.92;0.60;;;12.00;82.10;;;;;;5031854;28;20046;-79
2022/09/20 08:13:14;;;;;;;2.87;0.70;;;12.00;81.60;;;;;;5015753;28;20050;-79
2022/09/20 08:15:41;;;;;;;4.57;0.50;;;12.10;81.50;;;;;;5020667;28;20050;-79
2022/09/20 08:18:10;;;;;;;6.38;0.55;;;12.10;81.40;;;;;;5013402;28;20139;-80
2022/09/20 08:20:38;;;;;;;6.25;1.15;;;12.10;81.10;;;;;;5022274;28;20064;-79
2022/09/20 08:23:05;;;;;;;4.72;0.52;;;12.20;81.10;;;;;;5024262;28;20038;-80
2022/09/20 08:25:32;;;;;;;4.03;0.40;;;12.20;80.80;;;;;;5023284;28;20050;-80
2022/09/20 08:27:59;;;;;;;6.43;0.75;;;12.20;79.90;;;;;;5012251;28;20059;-79
2022/09/20 08:30:28;;;;;;;3.90;0.45;;;12.30;80.10;;;;;;5045533;28;20077;-81
2022/09/20 08:32:55;;;;;;;5.22;0.68;;;12.30;80.00;;;;;;5017714;28;20058;-79
2022/09/20 08:35:24;;;;;;;6.05;0.50;;;12.40;80.10;;;;;;5024790;28;20057;-80
2022/09/20 08:37:54;;;;;;;4.73;0.53;;;12.40;79.70;;;;;;5024330;28;20584;-79
2022/09/20 08:40:23;;;;;;;5.07;0.50;;;12.50;79.40;;;;;;5019509;28;20050;-79
2022/09/20 08:42:52;;;;;;;3.17;0.50;;;12.50;79.30;;;;;;5023448;28;20052;-79
2022/09/20 08:45:22;;;;;;;6.22;0.65;;;12.50;79.10;;;;;;5024365;28;20054;-79
2022/09/20 08:47:53;;;;;;;3.88;0.60;;;12.50;78.70;;;;;;5008670;28;20594;-80
2022/09/20 08:50:20;;;;;;;3.23;0.50;;;12.50;78.70;;;;;;5015638;28;20054;-80
2022/09/20 08:52:50;;;;;;;3.13;0.50;;;12.50;78.40;;;;;;5013733;28;20125;-82
2022/09/20 08:55:20;;;;;;;5.00;0.50;;;12.60;78.40;;;;;;5026599;28;20053;-80
2022/09/20 08:58:05;;;;;;;4.65;0.73;;;12.70;78.50;;;;;;5032395;28;20082;-80
2022/09/20 09:00:33;;;;;;;5.47;0.60;;;12.70;78.70;;;;;;5013382;28;20129;-80
2022/09/20 09:03:05;;;;;;;4.90;0.90;;;12.70;78.60;;;;;;5030138;28;20054;-80
2022/09/20 09:05:35;;;;;;;5.00;0.68;;;12.80;78.20;;;;;;5032099;28;20042;-75
2022/09/20 09:08:14;;;;;;;5.07;0.60;;;12.80;78.10;;;;;;5037175;28;20140;-76
2022/09/20 09:10:44;;;;;;;2.97;0.40;;;12.80;78.10;;;;;;5032924;28;20042;-76
2022/09/20 09:13:21;;;;;;;3.83;0.55;;;12.90;78.00;;;;;;5037513;28;20132;-76
2022/09/20 09:15:54;;;;;;;3.90;0.50;;;13.00;77.30;;;;;;5031822;28;20053;-77
2022/09/20 09:18:30;;;;;;;5.85;0.60;;;13.00;77.50;;;;;;5029150;28;20058;-80
2022/09/20 09:20:58;;;;;;;4.57;0.50;;;13.10;77.20;;;;;;5012767;28;20046;-81
2022/09/20 09:23:28;;;;;;;4.50;0.52;;;13.10;77.10;;;;;;5045080;28;20056;-80
2022/09/20 09:25:55;;;;;;;4.00;0.30;;;13.10;77.40;;;;;;5031749;28;20069;-80
2022/09/20 09:29:00;;;;;;;3.83;0.40;;;13.20;77.60;;;;;;5030576;28;20060;-80
2022/09/20 09:31:27;;;;;;;3.65;0.40;;;13.30;77.70;;;;;;5028091;28;20046;-80
2022/09/20 09:33:56;;;;;;;6.78;0.57;;;13.30;77.80;;;;;;5058953;28;20052;-80
2022/09/20 09:36:24;;;;;;;4.28;0.40;;;13.30;77.70;;;;;;5050036;28;20056;-80
2022/09/20 09:39:16;;;;;;;5.82;0.60;;;13.40;77.40;;;;;;5048144;28;20037;-80
2022/09/20 09:41:43;;;;;;;5.07;0.80;;;13.50;77.40;;;;;;5047881;28;20050;-80
2022/09/20 09:44:20;;;;;;;4.10;0.30;;;13.50;77.50;;;;;;5029047;28;20054;-80
2022/09/20 09:46:49;;;;;;;5.47;0.50;;;13.60;77.60;;;;;;5029064;28;20049;-80
2022/09/20 09:49:19;;;;;;;3.28;0.50;;;13.60;77.50;;;;;;5028636;28;20053;-80
2022/09/20 09:52:09;;;;;;;2.63;0.40;;;13.70;77.40;;;;;;5028834;28;20054;-80
2022/09/20 09:54:38;;;;;;;6.27;0.57;;;13.80;77.40;;;;;;5030141;28;20053;-80
2022/09/20 09:57:32;;;;;;;5.20;0.75;;;13.90;77.30;;;;;;5030225;28;20058;-80
2022/09/20 10:00:09;;;;;;;4.35;0.60;;;13.90;77.20;;;;;;5029700;28;20108;-80
2022/09/20 10:03:11;;;;;;;6.03;0.57;;;14.00;76.70;;;;;;5031288;28;20053;-80
2022/09/20 10:05:50;;;;;;;4.38;0.45;;;14.10;76.50;;;;;;5046824;28;20053;-80
2022/09/20 10:08:28;;;;;;;2.90;0.30;;;14.20;75.90;;;;;;5029921;28;20050;-80
2022/09/20 10:11:07;;;;;;;5.30;0.60;;;14.30;75.80;;;;;;5030520;28;20065;-80
2022/09/20 10:13:41;;;;;;;4.13;0.40;;;14.40;75.70;;;;;;5030214;28;20100;-80
2022/09/20 10:16:18;;;;;;;3.22;0.30;;;14.50;76.00;;;;;;5037864;28;20054;-80
2022/09/20 10:18:53;;;;;;;5.07;0.60;;;14.50;72.50;;;;;;5042860;28;20050;-80
2022/09/20 10:21:40;;;;;;;6.13;0.30;;;14.60;71.90;;;;;;5030061;28;20148;-80
2022/09/20 10:24:29;;;;;;;4.72;0.40;;;14.60;71.20;;;;;;5013521;28;20046;-79
2022/09/20 10:27:12;;;;;;;3.20;0.32;;;14.60;72.10;;;;;;5030449;28;20057;-80
2022/09/20 10:29:56;;;;;;;4.88;0.40;;;14.50;72.40;;;;;;5030107;28;20961;-80
2022/09/20 10:32:35;;;;;;;3.10;0.38;;;14.60;72.90;;;;;;5030421;28;20075;-80
2022/09/20 10:35:15;;;;;;;2.47;0.37;;;14.60;73.00;;;;;;5030375;28;20092;-80
2022/09/20 10:38:00;;;;;;;2.97;0.30;;;14.60;73.20;;;;;;5029292;28;20594;-80
2022/09/20 10:43:26;;;;;;;3.50;0.35;;;14.60;72.90;;;;;;5014776;28;20043;-80
2022/09/20 10:46:03;;;;;;;5.57;0.30;;;14.60;73.00;;;;;;5010274;28;20624;-81
2022/09/20 10:48:36;;;;;;;5.17;0.50;;;14.60;72.80;;;;;;5008855;28;20058;-81
2022/09/20 10:51:11;;;;;;;2.90;0.30;;;14.60;72.50;;;;;;5012949;28;20144;-80
2022/09/20 10:53:46;;;;;;;3.97;0.40;;;14.60;72.10;;;;;;5028699;28;20428;-81
2022/09/20 10:56:26;;;;;;;3.95;0.40;;;14.60;71.60;;;;;;5028813;28;20113;-80
2022/09/20 10:59:21;;;;;;;3.45;0.65;;;14.50;71.40;;;;;;5028547;28;20137;-81
2022/09/20 11:02:01;;;;;;;3.00;0.43;;;14.50;71.50;;;;;;5029550;28;20046;-81
2022/09/20 11:05:13;;;;;;;3.65;0.45;;;14.40;70.30;;;;;;5029395;28;20500;-77
2022/09/20 11:07:52;;;;;;;5.45;0.80;;;14.30;70.40;;;;;;5014942;28;20064;-76
2022/09/20 11:10:25;;;;;;;2.83;0.45;;;14.30;70.70;;;;;;5039026;28;20923;-76
2022/09/20 11:12:56;;;;;;;2.53;0.40;;;14.20;70.40;;;;;;5030758;28;20613;-76
2022/09/20 11:15:29;;;;;;;3.17;0.37;;;14.20;70.50;;;;;;5038560;28;20125;-76
2022/09/20 11:18:02;;;;;;;3.45;0.30;;;14.30;68.90;;;;;;5024691;28;20137;-77
2022/09/20 11:20:35;;;;;;;4.05;0.50;;;14.30;69.60;;;;;;5024504;28;20050;-78
2022/09/20 11:23:10;;;;;;;3.58;0.40;;;14.30;69.50;;;;;;5021018;28;20125;-77
2022/09/20 11:25:44;;;;;;;4.47;0.50;;;14.30;69.90;;;;;;5030813;28;20883;-78
2022/09/20 11:28:19;;;;;;;2.53;0.30;;;14.30;69.80;;;;;;5022081;28;20050;-78
2022/09/20 11:30:55;;;;;;;4.57;0.60;;;14.30;70.30;;;;;;5045510;28;21000;-77
2022/09/20 11:33:27;;;;;;;4.07;0.50;;;14.30;70.50;;;;;;5041153;28;20081;-77
2022/09/20 11:35:58;;;;;;;4.70;0.60;;;14.40;70.50;;;;;;5057287;28;20053;-77
2022/09/20 11:38:32;;;;;;;2.42;0.30;;;14.40;70.70;;;;;;5012635;28;20042;-77
2022/09/20 11:41:05;;;;;;;3.73;0.40;;;14.50;70.80;;;;;;5037693;28;20104;-77
2022/09/20 11:43:34;;;;;;;6.15;0.60;;;14.50;71.20;;;;;;5029650;28;20050;-77
2022/09/20 11:46:05;;;;;;;3.38;0.40;;;14.50;71.70;;;;;;5031970;28;20078;-77
2022/09/20 11:48:36;;;;;;;5.93;0.60;;;14.60;72.10;;;;;;5048193;28;20061;-77
2022/09/20 11:51:39;;;;;;;4.38;0.60;;;14.70;71.90;;;;;;5015047;28;20057;-77
2022/09/20 11:54:40;;;;;;;4.63;0.50;;;14.70;70.50;;;;;;5023187;28;20504;-77
2022/09/20 11:57:14;;;;;;;5.18;0.50;;;14.80;66.50;;;;;;5045595;28;20141;-76
2022/09/20 11:59:48;;;;;;;4.72;0.50;;;14.90;67.70;;;;;;5032110;28;20054;-77
2022/09/20 12:02:21;;;;;;;3.00;0.40;;;14.90;69.20;;;;;;5030999;28;20046;-78
2022/09/20 12:04:52;;;;;;;5.65;0.70;;;15.00;70.10;;;;;;5015093;28;20129;-77
2022/09/20 12:07:23;;;;;;;5.07;0.40;;;15.10;69.80;;;;;;5010448;28;20046;-77
2022/09/20 12:09:56;;;;;;;3.20;0.60;;;15.20;70.40;;;;;;5034792;28;20536;-77
2022/09/20 12:12:36;;;;;;;4.50;0.68;;;15.30;71.10;;;;;;5032445;28;20046;-77
2022/09/20 12:15:06;;;;;;;4.22;0.40;;;15.40;70.80;;;;;;5034436;28;20983;-77
2022/09/20 12:18:02;;;;;;;3.33;0.50;;;15.60;70.90;;;;;;5038507;28;20058;-77
2022/09/20 12:21:01;;;;;;;3.37;0.50;;;15.70;69.20;;;;;;5041190;28;20092;-78
2022/09/20 12:24:02;;;;;;;3.38;0.40;;;15.80;68.70;;;;;;5016944;28;20781;-78
2022/09/20 12:26:41;;;;;;;5.03;0.40;;;16.00;67.60;;;;;;4964991;28;20218;-78
2022/09/20 12:29:46;;;;;;;3.92;0.35;;;16.00;65.90;;;;;;5017595;28;20045;-78
2022/09/20 12:32:39;;;;;;;4.60;0.65;;;16.10;66.40;;;;;;5016574;28;20054;-78
2022/09/20 12:35:43;;;;;;;3.53;0.40;;;16.20;66.00;;;;;;5011170;28;20054;-78
2022/09/20 12:38:17;;;;;;;3.85;0.50;;;16.20;66.00;;;;;;5028548;28;20508;-78
2022/09/20 12:40:59;;;;;;;3.22;0.50;;;16.30;66.20;;;;;;4995371;28;20054;-78
2022/09/20 12:43:28;;;;;;;3.67;0.50;;;16.40;66.60;;;;;;5013784;28;20141;-81
2022/09/20 12:45:56;;;;;;;3.53;0.50;;;16.40;66.70;;;;;;5028365;28;20049;-82
2022/09/20 12:48:25;;;;;;;7.00;0.63;;;16.40;66.40;;;;;;5028698;28;20515;-81
2022/09/20 12:54:06;;;;;;;5.38;0.70;;;16.50;66.80;;;;;;4993299;28;20054;-83
2022/09/20 12:56:36;;;;;;;4.40;0.70;;;16.50;66.50;;;;;;5031039;28;20053;-82
2022/09/20 12:59:06;;;;;;;2.92;0.50;;;16.50;66.40;;;;;;5030658;28;20054;-76
2022/09/20 13:01:39;;;;;;;6.53;0.50;;;16.50;66.70;;;;;;5015232;28;20058;-77
2022/09/20 13:04:54;;;;;;;5.80;0.50;;;16.60;66.50;;;;;;5036439;28;20502;-78
2022/09/20 13:07:42;;;;;;;4.95;0.52;;;16.60;66.10;;;;;;5020640;28;20142;-78
2022/09/20 13:10:29;;;;;;;3.55;0.60;;;16.60;66.80;;;;;;5017168;28;20042;-77
2022/09/20 13:13:02;;;;;;;3.35;0.50;;;16.70;66.70;;;;;;5033135;28;20054;-78
2022/09/20 13:15:31;;;;;;;4.17;0.60;;;16.70;65.70;;;;;;5033179;28;20042;-77
2022/09/20 13:18:05;;;;;;;3.45;0.40;;;16.70;63.00;;;;;;5031666;28;20591;-78
2022/09/20 13:20:34;;;;;;;5.68;0.50;;;16.80;63.00;;;;;;5026067;28;20542;-78
2022/09/20 13:23:05;;;;;;;4.45;0.50;;;16.80;63.70;;;;;;4998468;28;20053;-78
2022/09/20 13:25:33;;;;;;;3.75;0.50;;;16.90;64.30;;;;;;5026956;28;20050;-78
2022/09/20 13:28:07;;;;;;;2.33;0.20;;;17.00;64.50;;;;;;4970555;28;20106;-78
2022/09/20 13:30:34;;;;;;;4.03;0.50;;;17.00;62.00;;;;;;5026311;28;20054;-78
2022/09/20 13:33:16;;;;;;;4.00;0.50;;;17.00;56.90;;;;;;5027512;28;20684;-80
2022/09/20 13:35:45;;;;;;;2.85;0.50;;;17.00;57.10;;;;;;5034465;28;21035;-77
2022/09/20 13:38:19;;;;;;;4.30;0.55;;;17.00;59.30;;;;;;5030710;28;20073;-78
2022/09/20 13:40:47;;;;;;;2.33;0.30;;;17.00;58.50;;;;;;5030503;28;20100;-78
2022/09/20 13:43:27;;;;;;;3.83;0.40;;;17.00;60.10;;;;;;5030477;28;20058;-78
2022/09/20 13:45:57;;;;;;;4.30;0.63;;;17.10;60.30;;;;;;5052451;28;20133;-78
2022/09/20 13:48:25;;;;;;;2.83;0.60;;;17.20;60.20;;;;;;5032532;28;20133;-78
2022/09/20 13:50:52;;;;;;;2.95;0.40;;;17.20;61.10;;;;;;5021621;28;20086;-82